sensor_id;sensor_type;location;lat;lon;timestamp;P1;durP1;ratioP1;P2;durP2;ratioP2
54167;SDS011;68429;50.958;3.592;2023-07-24T00:01:31;2.03;;;1.70;;
54167;SDS011;68429;50.958;3.592;2023-07-24T00:03:56;3.17;;;2.17;;
54167;SDS011;68429;50.958;3.592;2023-07-24T00:06:24;2.00;;;1.90;;
54167;SDS011;68429;50.958;3.592;2023-07-24T00:08:49;3.10;;;2.10;;
54167;SDS011;68429;50.958;3.592;2023-07-24T00:11:15;5.15;;;2.42;;
54167;SDS011;68429;50.958;3.592;2023-07-24T00:13:40;3.70;;;2.15;;
54167;SDS011;68429;50.958;3.592;2023-07-24T00:16:07;3.72;;;2.10;;
54167;SDS011;68429;50.958;3.592;2023-07-24T00:18:33;2.85;;;2.50;;
54167;SDS011;68429;50.958;3.592;2023-07-24T00:20:59;5.85;;;2.17;;
54167;SDS011;68429;50.958;3.592;2023-07-24T00:23:25;3.30;;;2.65;;
54167;SDS011;68429;50.958;3.592;2023-07-24T00:25:50;3.30;;;2.58;;
54167;SDS011;68429;50.958;3.592;2023-07-24T00:28:16;3.95;;;2.92;;
54167;SDS011;68429;50.958;3.592;2023-07-24T00:30:42;3.70;;;2.40;;
54167;SDS011;68429;50.958;3.592;2023-07-24T00:33:08;2.95;;;2.65;;
54167;SDS011;68429;50.958;3.592;2023-07-24T00:35:33;8.02;;;2.63;;
54167;SDS011;68429;50.958;3.592;2023-07-24T00:37:59;3.33;;;2.22;;
54167;SDS011;68429;50.958;3.592;2023-07-24T00:40:25;3.47;;;2.30;;
54167;SDS011;68429;50.958;3.592;2023-07-24T00:42:50;2.50;;;2.05;;
54167;SDS011;68429;50.958;3.592;2023-07-24T00:45:16;5.32;;;2.60;;
54167;SDS011;68429;50.958;3.592;2023-07-24T00:47:42;3.67;;;2.55;;
54167;SDS011;68429;50.958;3.592;2023-07-24T00:50:08;3.00;;;2.20;;
54167;SDS011;68429;50.958;3.592;2023-07-24T00:52:35;2.38;;;2.17;;
54167;SDS011;68429;50.958;3.592;2023-07-24T00:55:01;2.92;;;1.98;;
54167;SDS011;68429;50.958;3.592;2023-07-24T00:57:27;2.63;;;2.40;;
54167;SDS011;68429;50.958;3.592;2023-07-24T00:59:53;3.65;;;2.42;;
54167;SDS011;68429;50.958;3.592;2023-07-24T01:02:19;6.07;;;2.60;;
54167;SDS011;68429;50.958;3.592;2023-07-24T01:04:45;2.40;;;2.00;;
54167;SDS011;68429;50.958;3.592;2023-07-24T01:07:12;4.18;;;2.60;;
54167;SDS011;68429;50.958;3.592;2023-07-24T01:09:38;4.25;;;2.75;;
54167;SDS011;68429;50.958;3.592;2023-07-24T01:12:08;8.23;;;2.47;;
54167;SDS011;68429;50.958;3.592;2023-07-24T01:14:44;3.83;;;2.60;;
54167;SDS011;68429;50.958;3.592;2023-07-24T01:17:11;3.67;;;2.33;;
54167;SDS011;68429;50.958;3.592;2023-07-24T01:19:48;2.90;;;2.47;;
54167;SDS011;68429;50.958;3.592;2023-07-24T01:27:26;4.00;;;2.95;;
54167;SDS011;68429;50.958;3.592;2023-07-24T01:29:52;7.28;;;2.40;;
54167;SDS011;68429;50.958;3.592;2023-07-24T01:32:21;4.70;;;2.90;;
54167;SDS011;68429;50.958;3.592;2023-07-24T01:34:47;2.95;;;2.65;;
54167;SDS011;68429;50.958;3.592;2023-07-24T01:37:13;3.20;;;2.90;;
54167;SDS011;68429;50.958;3.592;2023-07-24T01:39:40;3.65;;;3.00;;
54167;SDS011;68429;50.958;3.592;2023-07-24T01:42:06;3.00;;;2.70;;
54167;SDS011;68429;50.958;3.592;2023-07-24T01:44:33;3.03;;;2.70;;
54167;SDS011;68429;50.958;3.592;2023-07-24T01:46:58;3.75;;;2.45;;
54167;SDS011;68429;50.958;3.592;2023-07-24T01:49:24;4.93;;;3.75;;
54167;SDS011;68429;50.958;3.592;2023-07-24T01:51:50;4.40;;;3.00;;
54167;SDS011;68429;50.958;3.592;2023-07-24T01:54:15;4.28;;;2.67;;
54167;SDS011;68429;50.958;3.592;2023-07-24T01:56:41;4.13;;;2.85;;
54167;SDS011;68429;50.958;3.592;2023-07-24T01:59:08;5.07;;;2.80;;
54167;SDS011;68429;50.958;3.592;2023-07-24T02:01:34;5.80;;;2.90;;
54167;SDS011;68429;50.958;3.592;2023-07-24T02:04:03;3.78;;;2.38;;
54167;SDS011;68429;50.958;3.592;2023-07-24T02:06:28;4.78;;;2.78;;
54167;SDS011;68429;50.958;3.592;2023-07-24T02:08:54;3.83;;;3.13;;
54167;SDS011;68429;50.958;3.592;2023-07-24T02:11:20;5.97;;;3.17;;
54167;SDS011;68429;50.958;3.592;2023-07-24T02:13:46;3.38;;;3.00;;
54167;SDS011;68429;50.958;3.592;2023-07-24T02:16:12;3.70;;;2.85;;
54167;SDS011;68429;50.958;3.592;2023-07-24T02:18:38;6.80;;;2.95;;
54167;SDS011;68429;50.958;3.592;2023-07-24T02:21:06;3.20;;;2.90;;
54167;SDS011;68429;50.958;3.592;2023-07-24T02:23:32;3.85;;;3.08;;
54167;SDS011;68429;50.958;3.592;2023-07-24T02:25:57;5.72;;;3.08;;
54167;SDS011;68429;50.958;3.592;2023-07-24T02:28:23;3.88;;;3.45;;
54167;SDS011;68429;50.958;3.592;2023-07-24T02:30:49;3.25;;;2.72;;
54167;SDS011;68429;50.958;3.592;2023-07-24T02:33:16;5.47;;;3.33;;
54167;SDS011;68429;50.958;3.592;2023-07-24T02:35:42;5.35;;;3.67;;
54167;SDS011;68429;50.958;3.592;2023-07-24T02:38:08;7.65;;;3.38;;
54167;SDS011;68429;50.958;3.592;2023-07-24T02:40:35;3.85;;;3.42;;
54167;SDS011;68429;50.958;3.592;2023-07-24T02:43:01;5.00;;;2.95;;
54167;SDS011;68429;50.958;3.592;2023-07-24T02:45:27;3.03;;;2.72;;
54167;SDS011;68429;50.958;3.592;2023-07-24T02:47:52;8.32;;;3.72;;
54167;SDS011;68429;50.958;3.592;2023-07-24T02:50:18;6.93;;;3.20;;
54167;SDS011;68429;50.958;3.592;2023-07-24T02:52:43;4.20;;;3.25;;
54167;SDS011;68429;50.958;3.592;2023-07-24T02:55:09;4.13;;;2.92;;
54167;SDS011;68429;50.958;3.592;2023-07-24T02:57:35;5.90;;;3.60;;
54167;SDS011;68429;50.958;3.592;2023-07-24T03:00:01;3.35;;;2.80;;
54167;SDS011;68429;50.958;3.592;2023-07-24T03:02:26;5.38;;;3.42;;
54167;SDS011;68429;50.958;3.592;2023-07-24T03:04:52;3.75;;;3.45;;
54167;SDS011;68429;50.958;3.592;2023-07-24T03:07:18;3.08;;;2.78;;
54167;SDS011;68429;50.958;3.592;2023-07-24T03:09:43;4.63;;;2.85;;
54167;SDS011;68429;50.958;3.592;2023-07-24T03:12:09;4.10;;;3.30;;
54167;SDS011;68429;50.958;3.592;2023-07-24T03:14:36;4.38;;;2.97;;
54167;SDS011;68429;50.958;3.592;2023-07-24T03:17:01;7.35;;;3.20;;
54167;SDS011;68429;50.958;3.592;2023-07-24T03:19:27;3.88;;;3.20;;
54167;SDS011;68429;50.958;3.592;2023-07-24T03:21:53;3.92;;;3.25;;
54167;SDS011;68429;50.958;3.592;2023-07-24T03:24:18;3.58;;;2.70;;
54167;SDS011;68429;50.958;3.592;2023-07-24T03:26:44;3.05;;;2.55;;
54167;SDS011;68429;50.958;3.592;2023-07-24T03:29:10;3.60;;;3.22;;
54167;SDS011;68429;50.958;3.592;2023-07-24T03:31:35;5.07;;;3.10;;
54167;SDS011;68429;50.958;3.592;2023-07-24T03:34:01;4.63;;;2.80;;
54167;SDS011;68429;50.958;3.592;2023-07-24T03:36:27;2.65;;;2.40;;
54167;SDS011;68429;50.958;3.592;2023-07-24T03:38:52;2.92;;;2.58;;
54167;SDS011;68429;50.958;3.592;2023-07-24T03:41:18;3.67;;;3.13;;
54167;SDS011;68429;50.958;3.592;2023-07-24T03:43:44;3.03;;;2.72;;
54167;SDS011;68429;50.958;3.592;2023-07-24T03:46:09;3.83;;;2.95;;
54167;SDS011;68429;50.958;3.592;2023-07-24T03:48:35;3.00;;;2.70;;
54167;SDS011;68429;50.958;3.592;2023-07-24T03:51:01;2.97;;;2.70;;
54167;SDS011;68429;50.958;3.592;2023-07-24T03:53:27;3.20;;;2.90;;
54167;SDS011;68429;50.958;3.592;2023-07-24T03:55:53;3.40;;;3.10;;
54167;SDS011;68429;50.958;3.592;2023-07-24T03:58:19;3.03;;;2.83;;
54167;SDS011;68429;50.958;3.592;2023-07-24T04:00:45;3.30;;;3.05;;
54167;SDS011;68429;50.958;3.592;2023-07-24T04:03:11;4.55;;;2.65;;
54167;SDS011;68429;50.958;3.592;2023-07-24T04:05:37;3.30;;;2.88;;
54167;SDS011;68429;50.958;3.592;2023-07-24T04:08:03;4.30;;;2.72;;
54167;SDS011;68429;50.958;3.592;2023-07-24T04:10:29;3.40;;;3.10;;
54167;SDS011;68429;50.958;3.592;2023-07-24T04:12:56;3.42;;;3.13;;
54167;SDS011;68429;50.958;3.592;2023-07-24T04:15:22;3.95;;;3.30;;
54167;SDS011;68429;50.958;3.592;2023-07-24T04:17:48;4.43;;;3.33;;
54167;SDS011;68429;50.958;3.592;2023-07-24T04:20:14;3.72;;;2.80;;
54167;SDS011;68429;50.958;3.592;2023-07-24T04:22:40;3.70;;;2.88;;
54167;SDS011;68429;50.958;3.592;2023-07-24T04:25:05;4.75;;;2.88;;
54167;SDS011;68429;50.958;3.592;2023-07-24T04:27:31;4.07;;;3.25;;
54167;SDS011;68429;50.958;3.592;2023-07-24T04:29:57;3.97;;;3.50;;
54167;SDS011;68429;50.958;3.592;2023-07-24T04:32:22;6.05;;;3.72;;
54167;SDS011;68429;50.958;3.592;2023-07-24T04:34:48;3.92;;;3.28;;
54167;SDS011;68429;50.958;3.592;2023-07-24T04:37:14;3.83;;;3.13;;
54167;SDS011;68429;50.958;3.592;2023-07-24T04:39:39;5.95;;;3.20;;
54167;SDS011;68429;50.958;3.592;2023-07-24T04:42:05;4.10;;;3.45;;
54167;SDS011;68429;50.958;3.592;2023-07-24T04:44:31;5.97;;;3.30;;
54167;SDS011;68429;50.958;3.592;2023-07-24T04:46:57;3.88;;;3.20;;
54167;SDS011;68429;50.958;3.592;2023-07-24T04:49:23;4.60;;;3.00;;
54167;SDS011;68429;50.958;3.592;2023-07-24T04:51:49;3.75;;;3.40;;
54167;SDS011;68429;50.958;3.592;2023-07-24T04:54:16;3.63;;;3.33;;
54167;SDS011;68429;50.958;3.592;2023-07-24T04:56:42;3.85;;;2.80;;
54167;SDS011;68429;50.958;3.592;2023-07-24T04:59:08;7.55;;;3.45;;
54167;SDS011;68429;50.958;3.592;2023-07-24T05:01:34;6.32;;;3.38;;
54167;SDS011;68429;50.958;3.592;2023-07-24T05:03:59;3.47;;;2.88;;
54167;SDS011;68429;50.958;3.592;2023-07-24T05:06:25;3.55;;;3.25;;
54167;SDS011;68429;50.958;3.592;2023-07-24T05:08:52;3.88;;;3.33;;
54167;SDS011;68429;50.958;3.592;2023-07-24T05:11:18;5.07;;;3.60;;
54167;SDS011;68429;50.958;3.592;2023-07-24T05:13:44;4.95;;;3.50;;
54167;SDS011;68429;50.958;3.592;2023-07-24T05:16:09;4.03;;;3.63;;
54167;SDS011;68429;50.958;3.592;2023-07-24T05:18:35;9.10;;;3.65;;
54167;SDS011;68429;50.958;3.592;2023-07-24T05:21:01;4.00;;;3.50;;
54167;SDS011;68429;50.958;3.592;2023-07-24T05:23:26;5.13;;;4.00;;
54167;SDS011;68429;50.958;3.592;2023-07-24T05:25:56;7.85;;;3.63;;
54167;SDS011;68429;50.958;3.592;2023-07-24T05:28:26;4.68;;;4.25;;
54167;SDS011;68429;50.958;3.592;2023-07-24T05:30:52;6.50;;;4.38;;
54167;SDS011;68429;50.958;3.592;2023-07-24T05:33:18;7.75;;;3.80;;
54167;SDS011;68429;50.958;3.592;2023-07-24T05:35:44;6.53;;;3.72;;
54167;SDS011;68429;50.958;3.592;2023-07-24T05:38:09;4.10;;;3.63;;
54167;SDS011;68429;50.958;3.592;2023-07-24T05:40:35;4.70;;;4.05;;
54167;SDS011;68429;50.958;3.592;2023-07-24T05:43:01;5.90;;;4.82;;
54167;SDS011;68429;50.958;3.592;2023-07-24T05:45:27;5.40;;;3.60;;
54167;SDS011;68429;50.958;3.592;2023-07-24T05:47:53;4.03;;;3.72;;
54167;SDS011;68429;50.958;3.592;2023-07-24T05:50:18;3.92;;;3.60;;
54167;SDS011;68429;50.958;3.592;2023-07-24T05:52:45;4.07;;;3.67;;
54167;SDS011;68429;50.958;3.592;2023-07-24T05:55:10;4.28;;;3.88;;
54167;SDS011;68429;50.958;3.592;2023-07-24T05:57:36;4.32;;;3.92;;
54167;SDS011;68429;50.958;3.592;2023-07-24T06:00:03;4.95;;;4.03;;
54167;SDS011;68429;50.958;3.592;2023-07-24T06:02:29;7.10;;;4.82;;
54167;SDS011;68429;50.958;3.592;2023-07-24T06:04:55;8.82;;;3.65;;
54167;SDS011;68429;50.958;3.592;2023-07-24T06:07:21;5.10;;;4.03;;
54167;SDS011;68429;50.958;3.592;2023-07-24T06:09:46;5.13;;;4.20;;
54167;SDS011;68429;50.958;3.592;2023-07-24T06:12:12;6.97;;;4.32;;
54167;SDS011;68429;50.958;3.592;2023-07-24T06:14:38;4.90;;;4.10;;
54167;SDS011;68429;50.958;3.592;2023-07-24T06:17:04;7.07;;;3.80;;
54167;SDS011;68429;50.958;3.592;2023-07-24T06:19:29;7.57;;;4.20;;
54167;SDS011;68429;50.958;3.592;2023-07-24T06:21:55;6.75;;;4.05;;
54167;SDS011;68429;50.958;3.592;2023-07-24T06:24:21;4.72;;;4.13;;
54167;SDS011;68429;50.958;3.592;2023-07-24T06:26:48;5.30;;;4.40;;
54167;SDS011;68429;50.958;3.592;2023-07-24T06:29:14;5.15;;;4.15;;
54167;SDS011;68429;50.958;3.592;2023-07-24T06:31:40;4.80;;;3.95;;
54167;SDS011;68429;50.958;3.592;2023-07-24T06:34:05;4.40;;;4.00;;
54167;SDS011;68429;50.958;3.592;2023-07-24T06:36:31;7.75;;;4.43;;
54167;SDS011;68429;50.958;3.592;2023-07-24T06:38:57;4.60;;;4.15;;
54167;SDS011;68429;50.958;3.592;2023-07-24T06:41:23;9.65;;;4.45;;
54167;SDS011;68429;50.958;3.592;2023-07-24T06:43:50;4.25;;;3.70;;
54167;SDS011;68429;50.958;3.592;2023-07-24T06:46:16;5.90;;;3.60;;
54167;SDS011;68429;50.958;3.592;2023-07-24T06:48:41;5.13;;;4.50;;
54167;SDS011;68429;50.958;3.592;2023-07-24T06:51:07;6.15;;;3.40;;
54167;SDS011;68429;50.958;3.592;2023-07-24T06:53:33;3.97;;;3.42;;
54167;SDS011;68429;50.958;3.592;2023-07-24T06:55:58;3.40;;;2.80;;
54167;SDS011;68429;50.958;3.592;2023-07-24T06:58:24;3.03;;;2.55;;
54167;SDS011;68429;50.958;3.592;2023-07-24T07:00:50;3.15;;;2.25;;
54167;SDS011;68429;50.958;3.592;2023-07-24T07:03:15;3.50;;;2.70;;
54167;SDS011;68429;50.958;3.592;2023-07-24T07:05:41;5.07;;;2.67;;
54167;SDS011;68429;50.958;3.592;2023-07-24T07:08:07;4.35;;;2.92;;
54167;SDS011;68429;50.958;3.592;2023-07-24T07:10:32;4.10;;;2.70;;
54167;SDS011;68429;50.958;3.592;2023-07-24T07:12:58;3.08;;;2.80;;
54167;SDS011;68429;50.958;3.592;2023-07-24T07:15:24;3.28;;;2.55;;
54167;SDS011;68429;50.958;3.592;2023-07-24T07:17:50;2.83;;;2.63;;
54167;SDS011;68429;50.958;3.592;2023-07-24T07:20:15;4.45;;;2.70;;
54167;SDS011;68429;50.958;3.592;2023-07-24T07:22:41;3.05;;;2.85;;
54167;SDS011;68429;50.958;3.592;2023-07-24T07:25:07;3.42;;;2.53;;
54167;SDS011;68429;50.958;3.592;2023-07-24T07:27:33;3.53;;;3.15;;
54167;SDS011;68429;50.958;3.592;2023-07-24T07:29:58;3.42;;;3.10;;
54167;SDS011;68429;50.958;3.592;2023-07-24T07:32:24;2.92;;;2.70;;
54167;SDS011;68429;50.958;3.592;2023-07-24T07:34:50;2.97;;;2.58;;
54167;SDS011;68429;50.958;3.592;2023-07-24T07:37:15;4.75;;;3.33;;
54167;SDS011;68429;50.958;3.592;2023-07-24T07:39:41;3.08;;;2.88;;
54167;SDS011;68429;50.958;3.592;2023-07-24T07:42:07;4.60;;;3.10;;
54167;SDS011;68429;50.958;3.592;2023-07-24T07:44:32;4.80;;;2.75;;
54167;SDS011;68429;50.958;3.592;2023-07-24T07:46:58;3.42;;;2.80;;
54167;SDS011;68429;50.958;3.592;2023-07-24T07:49:24;3.72;;;2.85;;
54167;SDS011;68429;50.958;3.592;2023-07-24T07:51:49;3.15;;;2.85;;
54167;SDS011;68429;50.958;3.592;2023-07-24T07:54:15;2.78;;;2.58;;
54167;SDS011;68429;50.958;3.592;2023-07-24T07:56:41;4.15;;;3.05;;
54167;SDS011;68429;50.958;3.592;2023-07-24T07:59:07;3.45;;;3.15;;
54167;SDS011;68429;50.958;3.592;2023-07-24T08:01:33;4.45;;;2.97;;
54167;SDS011;68429;50.958;3.592;2023-07-24T08:03:58;3.72;;;2.95;;
54167;SDS011;68429;50.958;3.592;2023-07-24T08:06:24;3.95;;;3.30;;
54167;SDS011;68429;50.958;3.592;2023-07-24T08:08:50;3.60;;;3.25;;
54167;SDS011;68429;50.958;3.592;2023-07-24T08:11:15;3.00;;;2.80;;
54167;SDS011;68429;50.958;3.592;2023-07-24T08:13:41;5.18;;;3.45;;
54167;SDS011;68429;50.958;3.592;2023-07-24T08:16:13;4.43;;;3.67;;
54167;SDS011;68429;50.958;3.592;2023-07-24T08:18:46;3.63;;;3.30;;
54167;SDS011;68429;50.958;3.592;2023-07-24T08:21:13;4.10;;;3.13;;
54167;SDS011;68429;50.958;3.592;2023-07-24T08:23:39;3.70;;;3.40;;
54167;SDS011;68429;50.958;3.592;2023-07-24T08:26:05;3.92;;;3.25;;
54167;SDS011;68429;50.958;3.592;2023-07-24T08:28:31;4.72;;;3.58;;
54167;SDS011;68429;50.958;3.592;2023-07-24T08:30:58;4.70;;;3.42;;
54167;SDS011;68429;50.958;3.592;2023-07-24T08:33:26;4.05;;;3.65;;
54167;SDS011;68429;50.958;3.592;2023-07-24T08:36:01;4.68;;;3.15;;
54167;SDS011;68429;50.958;3.592;2023-07-24T08:38:32;5.82;;;3.72;;
54167;SDS011;68429;50.958;3.592;2023-07-24T08:41:02;4.53;;;3.80;;
54167;SDS011;68429;50.958;3.592;2023-07-24T08:43:33;3.97;;;2.80;;
54167;SDS011;68429;50.958;3.592;2023-07-24T08:46:00;3.60;;;3.03;;
54167;SDS011;68429;50.958;3.592;2023-07-24T08:48:28;3.95;;;3.20;;
54167;SDS011;68429;50.958;3.592;2023-07-24T08:50:56;5.55;;;3.10;;
54167;SDS011;68429;50.958;3.592;2023-07-24T08:53:23;3.33;;;2.60;;
54167;SDS011;68429;50.958;3.592;2023-07-24T08:55:49;4.88;;;2.80;;
54167;SDS011;68429;50.958;3.592;2023-07-24T08:58:17;3.63;;;2.78;;
54167;SDS011;68429;50.958;3.592;2023-07-24T09:00:43;8.10;;;2.80;;
54167;SDS011;68429;50.958;3.592;2023-07-24T09:03:09;4.53;;;2.97;;
54167;SDS011;68429;50.958;3.592;2023-07-24T09:05:35;3.47;;;2.45;;
54167;SDS011;68429;50.958;3.592;2023-07-24T09:08:01;3.17;;;2.30;;
54167;SDS011;68429;50.958;3.592;2023-07-24T09:10:26;3.10;;;2.50;;
54167;SDS011;68429;50.958;3.592;2023-07-24T09:12:53;4.63;;;2.80;;
54167;SDS011;68429;50.958;3.592;2023-07-24T09:15:19;2.70;;;2.50;;
54167;SDS011;68429;50.958;3.592;2023-07-24T09:17:52;5.70;;;2.35;;
54167;SDS011;68429;50.958;3.592;2023-07-24T09:20:18;3.72;;;2.92;;
54167;SDS011;68429;50.958;3.592;2023-07-24T09:22:48;4.88;;;2.22;;
54167;SDS011;68429;50.958;3.592;2023-07-24T09:25:15;5.53;;;2.55;;
54167;SDS011;68429;50.958;3.592;2023-07-24T09:27:41;4.60;;;2.30;;
54167;SDS011;68429;50.958;3.592;2023-07-24T09:30:16;3.40;;;2.50;;
54167;SDS011;68429;50.958;3.592;2023-07-24T09:32:51;4.50;;;2.50;;
54167;SDS011;68429;50.958;3.592;2023-07-24T09:35:18;4.05;;;2.25;;
54167;SDS011;68429;50.958;3.592;2023-07-24T09:37:44;2.75;;;1.95;;
54167;SDS011;68429;50.958;3.592;2023-07-24T09:40:10;1.70;;;1.60;;
54167;SDS011;68429;50.958;3.592;2023-07-24T09:42:36;2.65;;;1.77;;
54167;SDS011;68429;50.958;3.592;2023-07-24T09:45:03;2.45;;;1.63;;
54167;SDS011;68429;50.958;3.592;2023-07-24T09:47:33;1.90;;;1.58;;
54167;SDS011;68429;50.958;3.592;2023-07-24T09:49:59;4.70;;;1.60;;
54167;SDS011;68429;50.958;3.592;2023-07-24T09:52:28;4.93;;;2.35;;
54167;SDS011;68429;50.958;3.592;2023-07-24T09:54:58;1.50;;;1.40;;
54167;SDS011;68429;50.958;3.592;2023-07-24T09:57:30;2.17;;;1.75;;
54167;SDS011;68429;50.958;3.592;2023-07-24T09:59:57;3.70;;;2.05;;
54167;SDS011;68429;50.958;3.592;2023-07-24T10:02:23;3.92;;;2.10;;
54167;SDS011;68429;50.958;3.592;2023-07-24T10:04:49;4.97;;;1.88;;
54167;SDS011;68429;50.958;3.592;2023-07-24T10:07:16;2.50;;;1.95;;
54167;SDS011;68429;50.958;3.592;2023-07-24T10:09:45;1.77;;;1.65;;
54167;SDS011;68429;50.958;3.592;2023-07-24T10:12:10;3.00;;;2.15;;
54167;SDS011;68429;50.958;3.592;2023-07-24T10:14:36;6.30;;;2.13;;
54167;SDS011;68429;50.958;3.592;2023-07-24T10:17:03;3.78;;;1.98;;
54167;SDS011;68429;50.958;3.592;2023-07-24T10:19:36;2.30;;;1.88;;
54167;SDS011;68429;50.958;3.592;2023-07-24T10:22:06;2.55;;;1.67;;
54167;SDS011;68429;50.958;3.592;2023-07-24T10:24:33;2.75;;;1.90;;
54167;SDS011;68429;50.958;3.592;2023-07-24T10:26:59;2.10;;;1.90;;
54167;SDS011;68429;50.958;3.592;2023-07-24T10:29:27;3.22;;;1.63;;
54167;SDS011;68429;50.958;3.592;2023-07-24T10:31:53;4.82;;;1.90;;
54167;SDS011;68429;50.958;3.592;2023-07-24T10:34:19;5.13;;;2.28;;
54167;SDS011;68429;50.958;3.592;2023-07-24T10:36:45;3.58;;;2.40;;
54167;SDS011;68429;50.958;3.592;2023-07-24T10:39:14;3.00;;;1.92;;
54167;SDS011;68429;50.958;3.592;2023-07-24T10:41:41;2.13;;;1.95;;
54167;SDS011;68429;50.958;3.592;2023-07-24T10:44:08;4.50;;;2.05;;
54167;SDS011;68429;50.958;3.592;2023-07-24T10:46:37;2.70;;;2.47;;
54167;SDS011;68429;50.958;3.592;2023-07-24T10:49:05;4.90;;;2.50;;
54167;SDS011;68429;50.958;3.592;2023-07-24T10:51:31;3.35;;;2.60;;
54167;SDS011;68429;50.958;3.592;2023-07-24T10:54:02;3.47;;;2.13;;
54167;SDS011;68429;50.958;3.592;2023-07-24T10:56:29;4.88;;;2.40;;
54167;SDS011;68429;50.958;3.592;2023-07-24T10:58:55;3.95;;;2.35;;
54167;SDS011;68429;50.958;3.592;2023-07-24T11:01:21;2.28;;;2.08;;
54167;SDS011;68429;50.958;3.592;2023-07-24T11:03:48;3.63;;;2.08;;
54167;SDS011;68429;50.958;3.592;2023-07-24T11:06:18;3.65;;;2.50;;
54167;SDS011;68429;50.958;3.592;2023-07-24T11:08:54;3.00;;;2.33;;
54167;SDS011;68429;50.958;3.592;2023-07-24T11:11:27;3.47;;;2.20;;
54167;SDS011;68429;50.958;3.592;2023-07-24T11:13:57;6.32;;;2.53;;
54167;SDS011;68429;50.958;3.592;2023-07-24T11:16:22;4.22;;;2.85;;
54167;SDS011;68429;50.958;3.592;2023-07-24T11:18:49;7.53;;;3.10;;
54167;SDS011;68429;50.958;3.592;2023-07-24T11:21:19;5.47;;;2.67;;
54167;SDS011;68429;50.958;3.592;2023-07-24T11:23:51;3.70;;;2.50;;
54167;SDS011;68429;50.958;3.592;2023-07-24T11:26:19;4.72;;;3.00;;
54167;SDS011;68429;50.958;3.592;2023-07-24T11:28:46;4.53;;;3.10;;
54167;SDS011;68429;50.958;3.592;2023-07-24T11:31:12;4.63;;;2.67;;
54167;SDS011;68429;50.958;3.592;2023-07-24T11:33:37;6.32;;;3.03;;
54167;SDS011;68429;50.958;3.592;2023-07-24T11:36:04;3.63;;;2.88;;
54167;SDS011;68429;50.958;3.592;2023-07-24T11:38:30;4.05;;;2.85;;
54167;SDS011;68429;50.958;3.592;2023-07-24T11:40:56;5.60;;;2.38;;
54167;SDS011;68429;50.958;3.592;2023-07-24T11:43:22;4.85;;;2.75;;
54167;SDS011;68429;50.958;3.592;2023-07-24T11:45:50;4.28;;;2.50;;
54167;SDS011;68429;50.958;3.592;2023-07-24T11:48:17;4.28;;;2.30;;
54167;SDS011;68429;50.958;3.592;2023-07-24T11:50:44;4.32;;;2.47;;
54167;SDS011;68429;50.958;3.592;2023-07-24T11:53:27;4.45;;;2.67;;
54167;SDS011;68429;50.958;3.592;2023-07-24T11:55:55;5.53;;;3.20;;
54167;SDS011;68429;50.958;3.592;2023-07-24T11:58:25;4.57;;;2.78;;
54167;SDS011;68429;50.958;3.592;2023-07-24T12:00:51;4.13;;;2.45;;
54167;SDS011;68429;50.958;3.592;2023-07-24T12:03:21;3.40;;;2.53;;
54167;SDS011;68429;50.958;3.592;2023-07-24T12:05:49;6.43;;;2.30;;
54167;SDS011;68429;50.958;3.592;2023-07-24T12:08:16;5.47;;;2.70;;
54167;SDS011;68429;50.958;3.592;2023-07-24T12:10:43;4.68;;;2.35;;
54167;SDS011;68429;50.958;3.592;2023-07-24T12:13:09;2.45;;;2.00;;
54167;SDS011;68429;50.958;3.592;2023-07-24T12:15:35;4.78;;;2.47;;
54167;SDS011;68429;50.958;3.592;2023-07-24T12:18:04;2.70;;;2.38;;
54167;SDS011;68429;50.958;3.592;2023-07-24T12:20:30;2.20;;;1.73;;
54167;SDS011;68429;50.958;3.592;2023-07-24T12:22:56;3.25;;;2.25;;
54167;SDS011;68429;50.958;3.592;2023-07-24T12:25:22;3.53;;;2.40;;
54167;SDS011;68429;50.958;3.592;2023-07-24T12:27:48;7.85;;;2.97;;
54167;SDS011;68429;50.958;3.592;2023-07-24T12:30:14;3.22;;;1.98;;
54167;SDS011;68429;50.958;3.592;2023-07-24T12:32:40;4.32;;;1.77;;
54167;SDS011;68429;50.958;3.592;2023-07-24T12:35:07;5.63;;;1.52;;
54167;SDS011;68429;50.958;3.592;2023-07-24T12:37:33;4.20;;;1.80;;
54167;SDS011;68429;50.958;3.592;2023-07-24T12:39:59;3.30;;;2.10;;
54167;SDS011;68429;50.958;3.592;2023-07-24T12:42:24;2.70;;;1.85;;
54167;SDS011;68429;50.958;3.592;2023-07-24T12:44:51;2.22;;;1.75;;
54167;SDS011;68429;50.958;3.592;2023-07-24T12:47:17;3.60;;;1.77;;
54167;SDS011;68429;50.958;3.592;2023-07-24T12:49:43;2.63;;;1.90;;
54167;SDS011;68429;50.958;3.592;2023-07-24T12:52:08;3.83;;;1.92;;
54167;SDS011;68429;50.958;3.592;2023-07-24T12:54:35;3.60;;;2.00;;
54167;SDS011;68429;50.958;3.592;2023-07-24T12:57:01;2.45;;;1.80;;
54167;SDS011;68429;50.958;3.592;2023-07-24T12:59:27;6.03;;;2.28;;
54167;SDS011;68429;50.958;3.592;2023-07-24T13:01:53;2.90;;;1.90;;
54167;SDS011;68429;50.958;3.592;2023-07-24T13:04:19;3.65;;;2.03;;
54167;SDS011;68429;50.958;3.592;2023-07-24T13:06:45;6.18;;;2.30;;
54167;SDS011;68429;50.958;3.592;2023-07-24T13:09:11;3.72;;;2.00;;
54167;SDS011;68429;50.958;3.592;2023-07-24T13:11:37;3.85;;;2.17;;
54167;SDS011;68429;50.958;3.592;2023-07-24T13:14:02;4.82;;;2.35;;
54167;SDS011;68429;50.958;3.592;2023-07-24T13:16:28;2.80;;;1.98;;
54167;SDS011;68429;50.958;3.592;2023-07-24T13:18:54;4.38;;;2.35;;
54167;SDS011;68429;50.958;3.592;2023-07-24T13:21:20;4.32;;;2.03;;
54167;SDS011;68429;50.958;3.592;2023-07-24T13:23:46;4.70;;;2.25;;
54167;SDS011;68429;50.958;3.592;2023-07-24T13:26:12;5.60;;;2.28;;
54167;SDS011;68429;50.958;3.592;2023-07-24T13:28:39;5.55;;;2.10;;
54167;SDS011;68429;50.958;3.592;2023-07-24T13:31:15;5.53;;;2.10;;
54167;SDS011;68429;50.958;3.592;2023-07-24T13:36:10;6.13;;;2.55;;
54167;SDS011;68429;50.958;3.592;2023-07-24T13:38:36;5.72;;;2.70;;
54167;SDS011;68429;50.958;3.592;2023-07-24T13:41:02;5.82;;;2.80;;
54167;SDS011;68429;50.958;3.592;2023-07-24T13:43:29;5.22;;;2.78;;
54167;SDS011;68429;50.958;3.592;2023-07-24T13:45:56;5.88;;;2.70;;
54167;SDS011;68429;50.958;3.592;2023-07-24T13:48:22;6.38;;;2.80;;
54167;SDS011;68429;50.958;3.592;2023-07-24T13:50:47;5.45;;;3.05;;
54167;SDS011;68429;50.958;3.592;2023-07-24T13:53:14;10.10;;;3.20;;
54167;SDS011;68429;50.958;3.592;2023-07-24T13:55:40;6.80;;;3.35;;
54167;SDS011;68429;50.958;3.592;2023-07-24T13:58:06;6.22;;;4.00;;
54167;SDS011;68429;50.958;3.592;2023-07-24T14:00:31;7.38;;;3.75;;
54167;SDS011;68429;50.958;3.592;2023-07-24T14:02:57;7.32;;;4.10;;
54167;SDS011;68429;50.958;3.592;2023-07-24T14:05:23;8.65;;;4.72;;
54167;SDS011;68429;50.958;3.592;2023-07-24T14:07:49;8.43;;;3.90;;
54167;SDS011;68429;50.958;3.592;2023-07-24T14:10:15;7.18;;;4.20;;
54167;SDS011;68429;50.958;3.592;2023-07-24T14:12:40;5.95;;;3.53;;
54167;SDS011;68429;50.958;3.592;2023-07-24T14:15:06;6.45;;;3.22;;
54167;SDS011;68429;50.958;3.592;2023-07-24T14:17:32;6.07;;;2.90;;
54167;SDS011;68429;50.958;3.592;2023-07-24T14:19:59;5.10;;;2.78;;
54167;SDS011;68429;50.958;3.592;2023-07-24T14:22:26;3.55;;;1.67;;
54167;SDS011;68429;50.958;3.592;2023-07-24T14:24:51;4.65;;;2.00;;
54167;SDS011;68429;50.958;3.592;2023-07-24T14:27:17;2.53;;;1.60;;
54167;SDS011;68429;50.958;3.592;2023-07-24T14:29:44;3.55;;;1.38;;
54167;SDS011;68429;50.958;3.592;2023-07-24T14:32:09;3.65;;;2.15;;
54167;SDS011;68429;50.958;3.592;2023-07-24T14:34:35;3.78;;;1.88;;
54167;SDS011;68429;50.958;3.592;2023-07-24T14:37:01;2.97;;;2.08;;
54167;SDS011;68429;50.958;3.592;2023-07-24T14:39:26;5.25;;;2.33;;
54167;SDS011;68429;50.958;3.592;2023-07-24T14:41:52;5.25;;;2.13;;
54167;SDS011;68429;50.958;3.592;2023-07-24T14:44:18;4.13;;;1.95;;
54167;SDS011;68429;50.958;3.592;2023-07-24T14:46:44;3.33;;;1.60;;
54167;SDS011;68429;50.958;3.592;2023-07-24T14:49:09;4.30;;;1.70;;
54167;SDS011;68429;50.958;3.592;2023-07-24T14:51:35;2.13;;;1.92;;